createdAt,value
2023-02-04T00:01:31.254Z,25.55
2023-02-04T00:07:33.081Z,33.72
2023-02-04T00:13:38.072Z,27.80
2023-02-04T00:19:43.230Z,30.92
2023-02-04T00:25:45.100Z,35.08
2023-02-04T00:31:47.251Z,28.20
2023-02-04T00:37:49.180Z,25.60
2023-02-04T00:43:51.110Z,29.95
2023-02-04T00:49:52.968Z,26.52
2023-02-04T00:55:55.029Z,31.70
2023-02-04T01:01:57.079Z,34.92
2023-02-04T01:07:58.988Z,30.33
2023-02-04T01:14:00.883Z,26.42
2023-02-04T01:20:02.920Z,32.88
2023-02-04T01:26:07.255Z,27.77
2023-02-04T01:32:09.132Z,28.90
2023-02-04T01:38:11.075Z,38.28
2023-02-04T01:44:13.081Z,26.92
2023-02-04T01:50:16.784Z,23.45
2023-02-04T01:56:21.208Z,19.07
2023-02-04T02:02:41.740Z,19.60
2023-02-04T02:08:43.614Z,25.50
2023-02-04T02:14:45.510Z,13.63
2023-02-04T02:20:47.553Z,21.73
2023-02-04T02:26:49.349Z,22.63
2023-02-04T02:32:52.825Z,14.48
2023-02-04T02:38:56.006Z,17.98
2023-02-04T02:44:59.327Z,17.65
2023-02-04T02:51:01.427Z,17.40
2023-02-04T02:57:03.824Z,9.93
2023-02-04T03:03:11.579Z,10.43
2023-02-04T03:09:13.927Z,9.48
2023-02-04T03:15:16.216Z,8.90
2023-02-04T03:21:18.172Z,11.90
2023-02-04T03:27:20.431Z,8.05
2023-02-04T03:33:31.675Z,10.82
2023-02-04T03:39:36.292Z,13.27
2023-02-04T03:45:45.327Z,8.90
2023-02-04T03:51:47.701Z,7.45
2023-02-04T03:57:49.524Z,8.60
2023-02-04T04:03:51.414Z,10.35
2023-02-04T04:09:53.261Z,7.07
2023-02-04T04:15:55.184Z,12.15
2023-02-04T04:21:57.106Z,9.25
2023-02-04T04:28:00.152Z,7.97
2023-02-04T04:34:03.069Z,11.93
2023-02-04T04:40:05.274Z,13.70
2023-02-04T04:46:08.239Z,7.80
2023-02-04T04:52:10.789Z,9.43
2023-02-04T04:58:12.582Z,10.43
2023-02-04T05:04:14.332Z,9.82
2023-02-04T05:10:16.518Z,9.30
2023-02-04T05:16:18.507Z,9.95
2023-02-04T05:22:20.315Z,5.90
2023-02-04T05:28:22.186Z,6.97
2023-02-04T05:34:24.170Z,3.60
2023-02-04T05:40:26.023Z,10.10
2023-02-04T05:46:27.881Z,13.98
2023-02-04T05:52:29.811Z,8.73
2023-02-04T05:58:33.674Z,5.28
2023-02-04T06:04:35.603Z,4.63
2023-02-04T06:10:37.502Z,6.75
2023-02-04T06:16:39.357Z,6.53
2023-02-04T06:22:41.513Z,6.60
2023-02-04T06:28:43.702Z,4.82
2023-02-04T06:34:48.271Z,4.85
2023-02-04T06:40:53.699Z,5.10
2023-02-04T06:46:55.589Z,6.63
2023-02-04T06:52:57.413Z,5.15
2023-02-04T06:58:59.336Z,5.95
2023-02-04T07:05:01.335Z,4.85
2023-02-04T07:11:03.202Z,6.72
2023-02-04T07:17:05.139Z,4.82
2023-02-04T07:23:06.954Z,7.05
2023-02-04T07:29:17.360Z,4.80
2023-02-04T07:35:22.595Z,9.57
2023-02-04T07:41:24.541Z,6.47
2023-02-04T07:47:26.270Z,6.55
2023-02-04T07:53:27.981Z,4.70
2023-02-04T07:59:29.725Z,6.55
2023-02-04T08:05:31.524Z,7.20
2023-02-04T08:11:33.269Z,4.82
2023-02-04T08:17:35.915Z,3.58
2023-02-04T08:23:41.739Z,9.05
2023-02-04T08:29:43.497Z,7.97
2023-02-04T08:35:45.254Z,5.80
2023-02-04T08:41:49.129Z,4.25
2023-02-04T08:47:50.929Z,6.23
2023-02-04T08:53:52.872Z,2.80
2023-02-04T08:59:54.672Z,2.60
2023-02-04T09:05:56.401Z,3.70
2023-02-04T09:11:58.192Z,4.45
2023-02-04T09:18:11.354Z,2.83
2023-02-04T09:24:13.165Z,4.03
2023-02-04T09:30:15.277Z,4.05
2023-02-04T09:36:17.504Z,7.22
2023-02-04T09:42:21.104Z,3.40
2023-02-04T09:48:24.345Z,2.50
2023-02-04T09:54:26.202Z,5.43
2023-02-04T10:00:30.944Z,3.55
2023-02-04T10:06:33.127Z,3.30
2023-02-04T10:12:35.116Z,3.58
2023-02-04T10:18:38.075Z,3.17
2023-02-04T10:24:40.134Z,2.78
2023-02-04T10:30:43.737Z,2.72
2023-02-04T10:36:48.477Z,2.93
2023-02-04T10:42:51.745Z,3.72
2023-02-04T10:48:53.540Z,2.72
2023-02-04T10:54:55.408Z,2.00
2023-02-04T11:00:58.026Z,2.95
2023-02-04T11:06:59.919Z,3.13
2023-02-04T11:13:04.983Z,2.40
2023-02-04T11:19:13.101Z,1.90
2023-02-04T11:25:35.306Z,1.80
2023-02-04T11:31:46.879Z,4.68
2023-02-04T11:37:49.243Z,3.13
2023-02-04T11:43:53.192Z,3.25
2023-02-04T11:50:01.756Z,4.13
2023-02-04T11:56:03.806Z,1.60
2023-02-04T12:02:17.455Z,2.53
2023-02-04T12:08:39.542Z,3.33
2023-02-04T12:14:42.305Z,4.00
2023-02-04T12:20:44.300Z,2.78
2023-02-04T12:26:46.065Z,2.00
2023-02-04T12:32:48.028Z,2.22
2023-02-04T12:38:49.777Z,2.45
2023-02-04T12:44:51.775Z,2.10
2023-02-04T12:50:53.557Z,1.98
2023-02-04T12:56:58.275Z,2.30
2023-02-04T13:03:00.438Z,3.10
2023-02-04T13:09:02.353Z,1.60
2023-02-04T13:15:04.871Z,1.95
2023-02-04T13:21:06.602Z,2.13
2023-02-04T13:27:08.407Z,2.50
2023-02-04T13:33:10.198Z,3.72
2023-02-04T13:39:12.380Z,2.40
2023-02-04T13:45:16.340Z,2.33
2023-02-04T13:51:18.663Z,4.90
2023-02-04T13:57:21.348Z,5.22
2023-02-04T14:03:26.494Z,1.92
2023-02-04T14:09:28.226Z,2.10
2023-02-04T14:15:29.944Z,5.10
2023-02-04T14:21:31.805Z,4.22
2023-02-04T14:27:35.404Z,1.98
2023-02-04T14:33:40.033Z,3.80
2023-02-04T14:45:43.685Z,3.15
2023-02-04T14:51:45.503Z,2.45
2023-02-04T14:57:47.265Z,2.83
2023-02-04T15:03:49.022Z,2.65
2023-02-04T15:09:51.007Z,2.58
2023-02-04T15:15:52.787Z,5.60
2023-02-04T15:21:54.729Z,2.85
2023-02-04T15:27:56.881Z,2.20
2023-02-04T15:33:58.744Z,6.60
2023-02-04T15:40:00.918Z,5.38
2023-02-04T15:46:03.052Z,3.22
2023-02-04T15:52:07.136Z,4.07
2023-02-04T15:58:13.458Z,3.90
2023-02-04T16:04:15.617Z,2.75
2023-02-04T16:10:18.566Z,5.03
2023-02-04T16:16:20.421Z,3.20
2023-02-04T16:22:22.250Z,5.30
2023-02-04T16:28:25.179Z,8.63
2023-02-04T16:34:27.144Z,5.97
2023-02-04T16:40:28.861Z,7.35
2023-02-04T16:46:33.646Z,4.22
2023-02-04T16:52:35.569Z,3.90
2023-02-04T16:58:38.561Z,5.05
2023-02-04T17:04:40.395Z,3.28
2023-02-04T17:11:01.063Z,5.63
2023-02-04T17:17:03.152Z,5.43
2023-02-04T17:23:05.176Z,6.97
2023-02-04T17:29:12.817Z,5.63
2023-02-04T17:35:15.059Z,7.80
2023-02-04T17:41:17.624Z,6.30
2023-02-04T17:47:19.676Z,10.25
2023-02-04T17:53:21.523Z,7.63
2023-02-04T17:59:24.094Z,5.30
2023-02-04T18:05:28.252Z,3.75
2023-02-04T18:11:35.894Z,4.22
2023-02-04T18:17:37.683Z,4.65
2023-02-04T18:23:39.460Z,3.65
2023-02-04T18:29:45.261Z,5.32
2023-02-04T18:35:50.325Z,6.05
2023-02-04T18:41:52.592Z,6.07
2023-02-04T18:47:56.598Z,6.43
2023-02-04T18:54:28.564Z,5.17
2023-02-04T19:00:32.911Z,7.10
2023-02-04T19:06:40.348Z,6.28
2023-02-04T19:12:42.179Z,4.50
2023-02-04T19:18:44.066Z,5.20
2023-02-04T19:25:06.079Z,6.63
2023-02-04T19:31:08.562Z,7.13
2023-02-04T19:37:40.313Z,5.68
2023-02-04T19:43:42.121Z,7.28
2023-02-04T19:49:43.996Z,7.05
2023-02-04T19:55:48.120Z,5.50
2023-02-04T20:02:02.588Z,5.15
2023-02-04T20:08:42.265Z,9.70
2023-02-04T20:14:47.262Z,6.38
2023-02-04T20:20:49.174Z,5.25
2023-02-04T20:26:52.623Z,6.40
2023-02-04T20:32:57.110Z,5.75
2023-02-04T20:39:26.421Z,25.55
2023-02-04T20:45:38.550Z,5.85
2023-02-04T20:51:40.293Z,9.90
2023-02-04T20:57:42.028Z,9.23
2023-02-04T21:03:45.736Z,10.02
2023-02-04T21:09:48.530Z,6.10
2023-02-04T21:15:50.749Z,6.65
2023-02-04T21:21:52.555Z,3.45
2023-02-04T21:27:54.864Z,4.05
2023-02-04T21:33:57.190Z,3.10
2023-02-04T21:39:58.892Z,4.45
2023-02-04T21:46:00.856Z,3.55
2023-02-04T21:52:02.686Z,7.47
2023-02-04T21:58:04.949Z,4.32
2023-02-04T22:04:06.828Z,4.05
2023-02-04T22:10:12.851Z,4.45
2023-02-04T22:16:14.885Z,4.30
2023-02-04T22:22:16.758Z,3.75
2023-02-04T22:28:18.565Z,3.50
2023-02-04T22:34:20.785Z,2.55
2023-02-04T22:40:22.466Z,3.05
2023-02-04T22:46:24.448Z,4.22
2023-02-04T22:52:26.396Z,2.35
2023-02-04T22:58:28.440Z,5.75
2023-02-04T23:04:30.474Z,5.55
2023-02-04T23:10:32.324Z,3.83
2023-02-04T23:16:34.587Z,4.28
2023-02-04T23:22:36.370Z,5.30
2023-02-04T23:28:38.229Z,4.63
2023-02-04T23:34:40.047Z,3.05
2023-02-04T23:40:41.910Z,4.95
2023-02-04T23:46:43.738Z,4.05
2023-02-04T23:52:45.483Z,3.72
2023-02-04T23:58:47.276Z,3.42
